createdAt,value
2023-02-26T00:03:11.405Z,4.93
2023-02-26T00:08:07.917Z,3.25
2023-02-26T00:13:04.602Z,4.43
2023-02-26T00:18:13.834Z,4.18
2023-02-26T00:23:14.447Z,4.65
2023-02-26T00:28:11.185Z,6.50
2023-02-26T00:33:07.790Z,6.75
2023-02-26T00:38:06.474Z,6.72
2023-02-26T00:43:05.340Z,7.55
2023-02-26T00:48:34.254Z,5.68
2023-02-26T00:54:05.260Z,4.78
2023-02-26T00:59:01.983Z,6.07
2023-02-26T01:03:58.571Z,5.35
2023-02-26T01:09:18.234Z,7.72
2023-02-26T01:14:15.033Z,5.43
2023-02-26T01:19:17.581Z,6.13
2023-02-26T01:24:15.623Z,7.43
2023-02-26T01:29:12.206Z,6.40
2023-02-26T01:34:32.140Z,8.15
2023-02-26T01:40:07.285Z,5.30
2023-02-26T01:45:26.826Z,5.25
2023-02-26T01:50:29.729Z,5.70
2023-02-26T01:55:27.053Z,10.60
2023-02-26T02:00:23.887Z,3.90
2023-02-26T02:05:39.502Z,4.53
2023-02-26T02:10:35.978Z,6.45
2023-02-26T02:15:46.530Z,5.30
2023-02-26T02:21:10.238Z,5.68
2023-02-26T02:26:30.578Z,3.40
2023-02-26T02:31:32.379Z,5.40
2023-02-26T02:36:45.384Z,4.60
2023-02-26T02:41:49.653Z,3.97
2023-02-26T02:46:47.466Z,7.13
2023-02-26T02:51:51.520Z,4.13
2023-02-26T02:56:54.026Z,5.30
2023-02-26T03:02:19.496Z,5.38
2023-02-26T03:07:15.989Z,4.50
2023-02-26T03:12:12.567Z,5.68
2023-02-26T03:17:28.381Z,4.28
2023-02-26T03:22:41.009Z,9.02
2023-02-26T03:27:43.069Z,7.88
2023-02-26T03:33:19.678Z,5.88
2023-02-26T03:38:23.274Z,6.00
2023-02-26T03:43:29.296Z,4.15
2023-02-26T03:48:27.596Z,6.38
2023-02-26T03:53:58.618Z,5.05
2023-02-26T03:58:55.189Z,4.82
2023-02-26T04:04:02.805Z,4.85
2023-02-26T04:08:59.572Z,5.60
2023-02-26T04:13:56.069Z,3.50
2023-02-26T04:18:52.576Z,7.00
2023-02-26T04:23:49.283Z,2.67
2023-02-26T04:28:45.714Z,5.68
2023-02-26T04:33:42.241Z,2.73
2023-02-26T04:38:38.996Z,4.00
2023-02-26T04:43:35.501Z,4.85
2023-02-26T04:48:31.979Z,4.40
2023-02-26T04:53:28.434Z,4.33
2023-02-26T04:58:24.879Z,3.70
2023-02-26T05:03:21.948Z,6.00
2023-02-26T05:13:14.771Z,2.72
2023-02-26T05:18:11.352Z,3.90
2023-02-26T05:23:07.796Z,5.45
2023-02-26T05:28:04.325Z,4.63
2023-02-26T05:33:00.808Z,7.50
2023-02-26T05:37:57.241Z,5.07
2023-02-26T05:42:53.614Z,3.20
2023-02-26T05:47:50.226Z,3.97
2023-02-26T05:52:46.709Z,4.72
2023-02-26T05:57:43.140Z,5.55
2023-02-26T06:02:40.431Z,6.47
2023-02-26T06:07:36.890Z,6.88
2023-02-26T06:12:33.334Z,7.05
2023-02-26T06:17:29.755Z,5.60
2023-02-26T06:22:26.186Z,5.63
2023-02-26T06:27:22.916Z,3.27
2023-02-26T06:32:19.480Z,5.53
2023-02-26T06:37:16.312Z,5.20
2023-02-26T06:42:12.738Z,4.80
2023-02-26T06:47:09.109Z,4.97
2023-02-26T06:52:05.521Z,5.07
2023-02-26T06:57:03.159Z,3.03
2023-02-26T07:01:59.627Z,3.53
2023-02-26T07:06:56.112Z,2.85
2023-02-26T07:11:52.526Z,5.20
2023-02-26T07:16:49.020Z,7.47
2023-02-26T07:21:45.565Z,4.38
2023-02-26T07:26:42.033Z,3.33
2023-02-26T07:31:38.653Z,3.83
2023-02-26T07:36:35.182Z,3.65
2023-02-26T07:41:31.645Z,7.00
2023-02-26T07:46:28.465Z,4.75
2023-02-26T07:51:25.552Z,7.18
2023-02-26T08:01:18.645Z,6.47
2023-02-26T08:06:15.129Z,3.53
2023-02-26T08:11:11.639Z,4.50
2023-02-26T08:16:08.127Z,6.28
2023-02-26T08:21:05.122Z,10.65
2023-02-26T08:26:03.358Z,5.75
2023-02-26T08:31:00.867Z,5.35
2023-02-26T08:35:58.897Z,5.38
2023-02-26T08:40:55.452Z,4.07
2023-02-26T08:45:53.142Z,7.60
2023-02-26T08:50:50.079Z,3.67
2023-02-26T08:55:50.607Z,7.85
2023-02-26T09:00:47.170Z,5.13
2023-02-26T09:05:43.726Z,4.15
2023-02-26T09:10:41.141Z,5.60
2023-02-26T09:15:37.730Z,3.42
2023-02-26T09:20:34.240Z,3.85
2023-02-26T09:25:30.738Z,2.83
2023-02-26T09:30:27.201Z,3.33
2023-02-26T09:35:23.713Z,2.15
2023-02-26T09:40:46.471Z,3.92
2023-02-26T09:45:44.706Z,2.92
2023-02-26T09:50:44.752Z,2.05
2023-02-26T09:55:44.870Z,2.70
2023-02-26T10:00:43.583Z,3.40
2023-02-26T10:05:46.169Z,2.67
2023-02-26T10:10:51.371Z,1.58
2023-02-26T10:15:48.602Z,2.22
2023-02-26T10:21:18.044Z,3.38
2023-02-26T10:26:22.685Z,1.88
2023-02-26T10:31:38.647Z,3.17
2023-02-26T10:36:48.707Z,4.85
2023-02-26T10:41:45.465Z,4.95
2023-02-26T10:46:57.430Z,1.83
2023-02-26T10:51:55.169Z,2.13
2023-02-26T10:56:51.598Z,3.00
2023-02-26T11:01:48.348Z,1.88
2023-02-26T11:06:57.499Z,3.22
2023-02-26T11:12:12.642Z,2.47
2023-02-26T11:17:19.737Z,4.57
2023-02-26T11:22:16.722Z,1.88
2023-02-26T11:27:24.509Z,5.25
2023-02-26T11:37:30.707Z,4.70
2023-02-26T11:42:28.080Z,4.97
2023-02-26T11:47:29.939Z,5.22
2023-02-26T11:52:29.842Z,4.35
2023-02-26T11:57:29.068Z,4.65
2023-02-26T12:02:29.339Z,5.55
2023-02-26T12:07:32.022Z,3.47
2023-02-26T12:12:38.136Z,5.78
2023-02-26T12:18:17.237Z,3.67
2023-02-26T12:23:50.636Z,3.65
2023-02-26T12:28:53.153Z,4.85
2023-02-26T12:33:58.547Z,2.65
2023-02-26T12:39:20.229Z,3.10
2023-02-26T12:44:55.408Z,3.47
2023-02-26T12:50:22.339Z,2.42
2023-02-26T12:55:56.317Z,4.40
2023-02-26T13:01:26.080Z,4.47
2023-02-26T13:06:41.544Z,6.50
2023-02-26T13:11:53.099Z,7.47
2023-02-26T13:17:20.110Z,4.90
2023-02-26T13:22:16.506Z,4.05
2023-02-26T13:27:14.878Z,6.38
2023-02-26T13:32:24.418Z,6.13
2023-02-26T13:37:42.110Z,3.80
2023-02-26T13:42:51.891Z,2.43
2023-02-26T13:47:50.956Z,3.88
2023-02-26T13:52:53.298Z,5.18
2023-02-26T13:57:52.656Z,4.18
2023-02-26T14:02:55.657Z,7.50
2023-02-26T14:08:16.646Z,4.38
2023-02-26T14:13:21.712Z,6.90
2023-02-26T14:18:39.996Z,5.80
2023-02-26T14:23:37.203Z,5.93
2023-02-26T14:28:40.609Z,4.78
2023-02-26T14:33:59.999Z,4.25
2023-02-26T14:38:58.432Z,5.65
2023-02-26T14:44:07.260Z,4.68
2023-02-26T14:49:04.398Z,2.92
2023-02-26T14:54:06.683Z,4.13
2023-02-26T14:59:18.011Z,5.05
2023-02-26T15:04:28.645Z,5.70
2023-02-26T15:09:49.785Z,5.25
2023-02-26T15:15:12.433Z,4.68
2023-02-26T15:20:10.624Z,4.32
2023-02-26T15:25:18.532Z,6.78
2023-02-26T15:30:16.685Z,4.47
2023-02-26T15:35:22.512Z,5.25
2023-02-26T15:40:19.613Z,5.20
2023-02-26T15:50:26.380Z,4.97
2023-02-26T15:55:23.017Z,4.25
2023-02-26T16:00:25.565Z,8.20
2023-02-26T16:05:22.266Z,3.92
2023-02-26T16:10:28.019Z,4.32
2023-02-26T16:15:36.917Z,2.65
2023-02-26T16:20:39.178Z,6.15
2023-02-26T16:25:40.073Z,9.50
2023-02-26T16:30:38.128Z,7.68
2023-02-26T16:35:38.860Z,4.22
2023-02-26T16:40:36.720Z,7.15
2023-02-26T16:45:49.182Z,5.13
2023-02-26T16:50:52.514Z,6.53
2023-02-26T16:55:52.306Z,4.40
2023-02-26T17:00:53.098Z,6.22
2023-02-26T17:06:03.602Z,5.88
2023-02-26T17:11:06.536Z,6.53
2023-02-26T17:16:05.958Z,4.85
2023-02-26T17:21:04.215Z,6.15
2023-02-26T17:26:02.276Z,4.28
2023-02-26T17:30:58.787Z,5.68
2023-02-26T17:36:04.590Z,5.13
2023-02-26T17:41:01.093Z,5.72
2023-02-26T17:45:58.137Z,9.02
2023-02-26T17:55:53.338Z,8.85
2023-02-26T18:00:53.102Z,8.27
2023-02-26T18:05:50.878Z,10.27
2023-02-26T18:10:47.369Z,9.00
2023-02-26T18:15:45.297Z,9.75
2023-02-26T18:20:42.051Z,8.48
2023-02-26T18:25:39.461Z,8.63
2023-02-26T18:30:38.242Z,9.27
2023-02-26T18:35:34.764Z,7.30
2023-02-26T18:40:31.217Z,7.35
2023-02-26T18:45:27.656Z,4.82
2023-02-26T18:50:24.902Z,5.63
2023-02-26T18:55:21.425Z,7.97
2023-02-26T19:00:18.223Z,9.55
2023-02-26T19:05:16.214Z,7.45
2023-02-26T19:10:14.643Z,9.57
2023-02-26T19:15:12.887Z,7.50
2023-02-26T19:20:10.410Z,8.77
2023-02-26T19:25:07.327Z,8.73
2023-02-26T19:30:05.313Z,8.13
2023-02-26T19:35:01.830Z,9.60
2023-02-26T19:39:58.306Z,9.30
2023-02-26T19:44:54.917Z,11.50
2023-02-26T19:49:52.381Z,8.25
2023-02-26T19:54:48.821Z,14.60
2023-02-26T19:59:47.050Z,11.25
2023-02-26T20:04:43.522Z,10.05
2023-02-26T20:09:39.954Z,9.93
2023-02-26T20:14:36.718Z,9.00
2023-02-26T20:19:33.229Z,8.80
2023-02-26T20:24:30.726Z,9.18
2023-02-26T20:29:27.209Z,8.13
2023-02-26T20:34:23.690Z,8.50
2023-02-26T20:39:21.058Z,7.15
2023-02-26T20:44:17.624Z,7.47
2023-02-26T20:49:14.118Z,6.78
2023-02-26T20:54:14.602Z,10.23
2023-02-26T20:59:11.069Z,6.70
2023-02-26T21:04:08.870Z,5.43
2023-02-26T21:09:06.086Z,7.28
2023-02-26T21:14:02.867Z,9.70
2023-02-26T21:19:04.274Z,15.73
2023-02-26T21:24:00.805Z,11.23
2023-02-26T21:28:57.328Z,7.65
2023-02-26T21:33:53.802Z,9.63
2023-02-26T21:38:50.273Z,8.20
2023-02-26T21:43:47.740Z,7.88
2023-02-26T21:48:46.241Z,9.45
2023-02-26T21:53:45.093Z,8.80
2023-02-26T21:58:41.923Z,7.97
2023-02-26T22:03:38.628Z,8.07
2023-02-26T22:08:35.140Z,10.18
2023-02-26T22:13:31.621Z,9.88
2023-02-26T22:18:28.069Z,9.52
2023-02-26T22:23:24.486Z,8.10
2023-02-26T22:28:20.934Z,6.97
2023-02-26T22:33:17.849Z,14.43
2023-02-26T22:38:14.384Z,10.82
2023-02-26T22:43:10.905Z,13.35
2023-02-26T22:48:07.806Z,12.68
2023-02-26T22:53:04.512Z,10.80
2023-02-26T22:58:00.938Z,9.52
2023-02-26T23:02:57.403Z,9.23
2023-02-26T23:07:53.869Z,7.45
2023-02-26T23:12:50.289Z,7.67
2023-02-26T23:17:46.779Z,9.47
2023-02-26T23:22:43.868Z,10.82
2023-02-26T23:32:37.138Z,10.05
2023-02-26T23:37:33.668Z,8.23
2023-02-26T23:42:30.134Z,11.10
2023-02-26T23:47:26.548Z,7.47
2023-02-26T23:52:25.527Z,7.47
2023-02-26T23:57:22.183Z,9.13
